createdAt,value
2022-12-05T00:01:39.263Z,12.38
2022-12-05T00:04:12.081Z,11.63
2022-12-05T00:06:40.158Z,12.60
2022-12-05T00:09:10.635Z,12.02
2022-12-05T00:11:42.845Z,11.95
2022-12-05T00:14:10.285Z,12.32
2022-12-05T00:16:39.177Z,12.55
2022-12-05T00:19:11.881Z,12.40
2022-12-05T00:21:38.664Z,12.02
2022-12-05T00:24:11.964Z,12.05
2022-12-05T00:26:40.768Z,12.27
2022-12-05T00:29:07.414Z,12.13
2022-12-05T00:31:36.451Z,11.93
2022-12-05T00:34:05.879Z,10.68
2022-12-05T00:36:36.069Z,11.05
2022-12-05T00:39:06.948Z,10.68
2022-12-05T00:41:33.751Z,10.90
2022-12-05T00:44:05.944Z,11.77
2022-12-05T00:46:36.302Z,10.77
2022-12-05T00:49:07.775Z,11.23
2022-12-05T00:51:40.813Z,12.10
2022-12-05T00:54:12.786Z,11.35
2022-12-05T00:56:42.896Z,11.57
2022-12-05T01:01:41.453Z,11.93
2022-12-05T01:04:15.165Z,11.00
2022-12-05T01:06:42.901Z,10.18
2022-12-05T01:09:13.132Z,11.80
2022-12-05T01:14:12.752Z,11.13
2022-12-05T01:16:44.188Z,10.60
2022-12-05T01:19:21.976Z,11.32
2022-12-05T01:21:51.245Z,10.05
2022-12-05T01:24:19.525Z,10.57
2022-12-05T01:26:47.122Z,11.15
2022-12-05T01:29:15.913Z,10.85
2022-12-05T01:31:42.869Z,10.13
2022-12-05T01:34:13.488Z,10.45
2022-12-05T01:36:43.103Z,10.25
2022-12-05T01:39:13.536Z,11.27
2022-12-05T01:41:50.973Z,10.30
2022-12-05T01:44:26.018Z,10.55
2022-12-05T01:46:53.589Z,10.60
2022-12-05T01:49:25.234Z,10.18
2022-12-05T01:52:03.458Z,11.05
2022-12-05T01:54:30.571Z,10.30
2022-12-05T01:57:00.953Z,10.32
2022-12-05T01:59:32.510Z,10.63
2022-12-05T02:01:59.535Z,10.55
2022-12-05T02:04:28.612Z,9.65
2022-12-05T02:06:55.605Z,9.52
2022-12-05T02:09:23.329Z,9.30
2022-12-05T02:11:57.496Z,9.18
2022-12-05T02:14:34.725Z,9.98
2022-12-05T02:17:18.272Z,10.00
2022-12-05T02:20:18.064Z,9.02
2022-12-05T02:23:14.408Z,8.30
2022-12-05T02:28:50.418Z,8.82
2022-12-05T02:31:31.248Z,8.90
2022-12-05T02:34:38.877Z,9.07
2022-12-05T02:37:11.316Z,9.10
2022-12-05T02:39:44.106Z,9.40
2022-12-05T02:42:20.828Z,9.60
2022-12-05T02:44:56.019Z,9.70
2022-12-05T02:47:26.927Z,8.70
2022-12-05T02:49:54.004Z,10.13
2022-12-05T02:52:24.639Z,9.23
2022-12-05T02:54:55.153Z,9.02
2022-12-05T02:57:25.551Z,9.90
2022-12-05T02:59:54.682Z,8.63
2022-12-05T03:02:30.299Z,8.98
2022-12-05T03:05:12.922Z,9.15
2022-12-05T03:07:45.691Z,9.05
2022-12-05T03:10:15.458Z,8.25
2022-12-05T03:12:56.037Z,9.23
2022-12-05T03:15:36.278Z,9.15
2022-12-05T03:20:45.065Z,8.10
2022-12-05T03:23:18.219Z,8.68
2022-12-05T03:25:54.929Z,9.38
2022-12-05T03:28:31.532Z,9.10
2022-12-05T03:31:03.466Z,8.38
2022-12-05T03:33:35.962Z,9.00
2022-12-05T03:36:14.340Z,8.48
2022-12-05T03:39:05.936Z,8.77
2022-12-05T03:42:14.430Z,8.65
2022-12-05T03:44:52.193Z,9.15
2022-12-05T03:47:18.819Z,8.60
2022-12-05T03:49:50.555Z,8.27
2022-12-05T03:52:25.192Z,9.07
2022-12-05T03:55:00.147Z,8.52
2022-12-05T03:57:29.889Z,8.07
2022-12-05T04:00:01.658Z,8.98
2022-12-05T04:02:55.941Z,8.55
2022-12-05T04:05:43.669Z,9.10
2022-12-05T04:08:26.310Z,8.68
2022-12-05T04:10:57.353Z,9.85
2022-12-05T04:13:30.038Z,9.13
2022-12-05T04:16:24.600Z,7.70
2022-12-05T04:18:58.621Z,8.65
2022-12-05T04:21:40.639Z,8.68
2022-12-05T04:24:39.070Z,9.07
2022-12-05T04:27:29.325Z,8.60
2022-12-05T04:32:52.592Z,8.40
2022-12-05T04:38:30.558Z,8.88
2022-12-05T04:41:07.300Z,8.63
2022-12-05T04:43:40.730Z,8.45
2022-12-05T04:46:14.204Z,8.85
2022-12-05T04:48:44.858Z,7.88
2022-12-05T04:51:20.585Z,7.63
2022-12-05T04:53:54.531Z,8.18
2022-12-05T04:56:29.130Z,8.13
2022-12-05T04:58:55.958Z,7.55
2022-12-05T05:01:35.821Z,8.13
2022-12-05T05:04:13.856Z,9.82
2022-12-05T05:06:41.485Z,8.80
2022-12-05T05:09:08.224Z,8.50
2022-12-05T05:11:36.218Z,9.43
2022-12-05T05:14:03.943Z,8.85
2022-12-05T05:16:40.039Z,8.63
2022-12-05T05:19:07.878Z,9.38
2022-12-05T05:21:39.902Z,8.80
2022-12-05T05:24:12.403Z,9.38
2022-12-05T05:26:41.324Z,7.70
2022-12-05T05:29:09.623Z,8.50
2022-12-05T05:31:37.448Z,9.38
2022-12-05T05:34:09.456Z,8.00
2022-12-05T05:36:45.247Z,8.32
2022-12-05T05:39:15.505Z,8.05
2022-12-05T05:41:43.478Z,7.85
2022-12-05T05:44:10.874Z,8.05
2022-12-05T05:46:40.571Z,8.55
2022-12-05T05:49:07.406Z,7.90
2022-12-05T05:51:34.283Z,7.75
2022-12-05T05:54:01.248Z,7.45
2022-12-05T05:56:29.023Z,8.43
2022-12-05T05:59:01.767Z,8.00
2022-12-05T06:01:29.590Z,8.13
2022-12-05T06:04:01.833Z,8.38
2022-12-05T06:06:30.824Z,8.02
2022-12-05T06:08:57.499Z,7.63
2022-12-05T06:11:27.238Z,7.45
2022-12-05T06:13:55.920Z,7.35
2022-12-05T06:16:23.240Z,7.38
2022-12-05T06:18:50.183Z,7.57
2022-12-05T06:21:20.133Z,7.63
2022-12-05T06:23:47.313Z,7.47
2022-12-05T06:26:19.940Z,7.35
2022-12-05T06:28:47.415Z,8.48
2022-12-05T06:31:20.922Z,6.82
2022-12-05T06:33:48.181Z,7.75
2022-12-05T06:36:19.249Z,8.25
2022-12-05T06:38:48.133Z,7.53
2022-12-05T06:41:18.204Z,8.50
2022-12-05T06:43:45.017Z,7.45
2022-12-05T06:46:14.027Z,7.38
2022-12-05T06:48:40.814Z,7.07
2022-12-05T06:51:13.921Z,7.40
2022-12-05T06:53:41.217Z,7.63
2022-12-05T06:56:13.820Z,7.95
2022-12-05T06:58:42.201Z,6.40
2022-12-05T07:01:31.857Z,6.93
2022-12-05T07:03:59.412Z,7.15
2022-12-05T07:06:28.925Z,7.00
2022-12-05T07:08:55.683Z,7.35
2022-12-05T07:11:25.079Z,7.15
2022-12-05T07:13:54.040Z,6.78
2022-12-05T07:16:20.826Z,6.45
2022-12-05T07:18:50.125Z,6.82
2022-12-05T07:21:17.585Z,7.03
2022-12-05T07:23:45.901Z,7.32
2022-12-05T07:26:15.216Z,6.78
2022-12-05T07:28:42.171Z,6.50
2022-12-05T07:31:11.379Z,5.55
2022-12-05T07:33:38.979Z,6.13
2022-12-05T07:36:08.986Z,6.30
2022-12-05T07:38:36.329Z,6.05
2022-12-05T07:41:19.357Z,6.40
2022-12-05T07:43:46.144Z,6.05
2022-12-05T07:46:15.126Z,6.40
2022-12-05T07:48:42.159Z,6.00
2022-12-05T07:51:10.356Z,6.03
2022-12-05T07:53:38.422Z,6.78
2022-12-05T07:56:07.706Z,6.38
2022-12-05T07:58:35.561Z,6.57
2022-12-05T08:01:12.921Z,6.22
2022-12-05T08:03:39.670Z,6.68
2022-12-05T08:06:11.585Z,6.68
2022-12-05T08:08:38.564Z,6.80
2022-12-05T08:11:15.784Z,6.55
2022-12-05T08:13:42.928Z,5.97
2022-12-05T08:16:18.646Z,6.30
2022-12-05T08:18:46.262Z,6.53
2022-12-05T08:21:18.227Z,6.80
2022-12-05T08:23:45.917Z,6.30
2022-12-05T08:26:24.593Z,6.30
2022-12-05T08:28:53.434Z,6.72
2022-12-05T08:31:24.373Z,6.28
2022-12-05T08:33:59.142Z,6.20
2022-12-05T08:36:28.498Z,5.90
2022-12-05T08:39:00.610Z,5.47
2022-12-05T08:41:31.270Z,6.10
2022-12-05T08:44:03.041Z,5.78
2022-12-05T08:46:31.090Z,5.93
2022-12-05T08:48:58.136Z,5.55
2022-12-05T08:51:25.033Z,6.32
2022-12-05T08:53:51.847Z,6.18
2022-12-05T08:56:26.389Z,6.32
2022-12-05T08:58:57.355Z,5.75
2022-12-05T09:01:31.901Z,5.30
2022-12-05T09:04:00.572Z,5.72
2022-12-05T09:06:28.468Z,5.13
2022-12-05T09:09:00.967Z,6.72
2022-12-05T09:11:30.454Z,6.03
2022-12-05T09:13:58.852Z,6.55
2022-12-05T09:16:35.259Z,6.43
2022-12-05T09:19:10.700Z,6.78
2022-12-05T09:21:42.504Z,6.97
2022-12-05T09:24:11.353Z,6.55
2022-12-05T09:26:41.652Z,6.85
2022-12-05T09:29:16.214Z,6.78
2022-12-05T09:31:44.765Z,7.18
2022-12-05T09:34:14.020Z,6.22
2022-12-05T09:36:40.913Z,7.15
2022-12-05T09:39:10.465Z,7.05
2022-12-05T09:42:25.071Z,6.60
2022-12-05T09:45:26.742Z,7.25
2022-12-05T09:48:12.064Z,6.25
2022-12-05T09:50:46.745Z,5.95
2022-12-05T09:53:16.455Z,5.80
2022-12-05T09:55:53.017Z,6.40
2022-12-05T09:58:29.174Z,6.63
2022-12-05T10:01:10.812Z,6.05
2022-12-05T10:03:49.752Z,6.00
2022-12-05T10:06:26.796Z,6.68
2022-12-05T10:09:11.735Z,7.10
2022-12-05T10:11:47.552Z,6.72
2022-12-05T10:14:48.923Z,6.95
2022-12-05T10:17:32.989Z,6.45
2022-12-05T10:20:04.754Z,6.85
2022-12-05T10:22:43.230Z,6.13
2022-12-05T10:25:14.631Z,6.03
2022-12-05T10:27:45.500Z,5.30
2022-12-05T10:30:12.415Z,5.60
2022-12-05T10:32:51.550Z,6.00
2022-12-05T10:35:18.330Z,5.75
2022-12-05T10:37:53.024Z,5.10
2022-12-05T10:40:20.732Z,5.65
2022-12-05T10:42:49.080Z,5.38
2022-12-05T10:45:24.356Z,5.13
2022-12-05T10:47:56.185Z,4.78
2022-12-05T10:50:28.981Z,5.38
2022-12-05T10:53:00.537Z,5.55
2022-12-05T10:56:06.416Z,5.25
2022-12-05T10:58:34.469Z,4.93
2022-12-05T11:01:14.085Z,4.35
2022-12-05T11:03:43.399Z,4.13
2022-12-05T11:06:21.529Z,3.90
2022-12-05T11:09:04.757Z,3.70
2022-12-05T11:11:35.965Z,4.25
2022-12-05T11:14:08.927Z,4.35
2022-12-05T11:16:42.398Z,4.20
2022-12-05T11:19:34.070Z,4.07
2022-12-05T11:22:04.839Z,4.47
2022-12-05T11:24:32.666Z,4.50
2022-12-05T11:27:19.429Z,4.68
2022-12-05T11:30:02.442Z,4.85
2022-12-05T11:32:32.381Z,4.70
2022-12-05T11:35:28.813Z,4.68
2022-12-05T11:38:06.165Z,4.85
2022-12-05T11:40:49.188Z,4.95
2022-12-05T11:43:30.906Z,4.90
2022-12-05T11:46:27.252Z,4.43
2022-12-05T11:49:00.742Z,5.07
2022-12-05T11:51:46.956Z,5.05
2022-12-05T11:55:03.245Z,5.20
2022-12-05T11:57:31.142Z,5.10
2022-12-05T12:00:22.929Z,3.70
2022-12-05T12:03:17.849Z,4.00
2022-12-05T12:06:08.717Z,4.50
2022-12-05T12:09:10.607Z,4.28
2022-12-05T12:11:49.456Z,4.15
2022-12-05T12:14:27.959Z,5.47
2022-12-05T12:17:10.400Z,4.60
2022-12-05T12:19:48.925Z,5.25
2022-12-05T12:22:32.945Z,4.90
2022-12-05T12:25:17.375Z,5.50
2022-12-05T12:28:05.203Z,5.53
2022-12-05T12:30:50.706Z,5.80
2022-12-05T12:33:42.080Z,4.90
2022-12-05T12:36:30.551Z,5.30
2022-12-05T12:39:35.696Z,4.78
2022-12-05T12:42:25.397Z,5.05
2022-12-05T12:45:01.099Z,5.10
2022-12-05T12:47:53.979Z,5.22
2022-12-05T12:50:40.299Z,5.25
2022-12-05T12:53:28.889Z,5.33
2022-12-05T12:56:12.066Z,4.72
2022-12-05T12:58:50.634Z,5.55
2022-12-05T13:01:42.680Z,5.70
2022-12-05T13:04:15.560Z,5.50
2022-12-05T13:06:56.032Z,6.05
2022-12-05T13:09:34.801Z,6.32
2022-12-05T13:12:07.874Z,6.30
2022-12-05T13:14:37.226Z,7.07
2022-12-05T13:17:06.509Z,7.30
2022-12-05T13:19:43.428Z,7.28
2022-12-05T13:22:11.217Z,7.00
2022-12-05T13:24:38.011Z,7.38
2022-12-05T13:27:10.530Z,8.07
2022-12-05T13:29:56.082Z,7.10
2022-12-05T13:32:40.881Z,7.93
2022-12-05T13:35:07.516Z,7.88
2022-12-05T13:37:54.552Z,7.15
2022-12-05T13:41:08.908Z,7.45
2022-12-05T13:43:47.427Z,7.68
2022-12-05T13:46:29.485Z,7.90
2022-12-05T13:51:41.580Z,6.85
2022-12-05T13:54:24.058Z,7.93
2022-12-05T13:57:02.475Z,6.93
2022-12-05T14:00:07.267Z,7.55
2022-12-05T14:02:43.495Z,7.30
2022-12-05T14:05:19.235Z,7.15
2022-12-05T14:07:51.223Z,7.88
2022-12-05T14:10:36.555Z,7.78
2022-12-05T14:13:30.170Z,6.90
2022-12-05T14:16:22.133Z,7.50
2022-12-05T14:18:53.118Z,7.95
2022-12-05T14:21:47.315Z,6.97
2022-12-05T14:24:47.857Z,8.25
2022-12-05T14:27:27.809Z,7.38
2022-12-05T14:30:06.625Z,8.00
2022-12-05T14:32:36.863Z,6.93
2022-12-05T14:35:15.580Z,8.40
2022-12-05T14:38:04.247Z,7.45
2022-12-05T14:40:37.735Z,7.65
2022-12-05T14:43:04.494Z,7.47
2022-12-05T14:46:00.571Z,7.32
2022-12-05T14:48:32.785Z,7.50
2022-12-05T14:51:03.277Z,8.88
2022-12-05T14:53:35.106Z,7.97
2022-12-05T14:56:27.226Z,8.20
2022-12-05T14:58:56.800Z,7.22
2022-12-05T15:01:35.065Z,7.90
2022-12-05T15:04:20.246Z,10.52
2022-12-05T15:07:13.002Z,10.30
2022-12-05T15:10:05.054Z,8.90
2022-12-05T15:12:54.071Z,8.18
2022-12-05T15:15:40.180Z,8.43
2022-12-05T15:18:45.590Z,7.65
2022-12-05T15:21:25.447Z,8.18
2022-12-05T15:23:55.359Z,7.95
2022-12-05T15:26:48.577Z,8.57
2022-12-05T15:29:27.922Z,8.75
2022-12-05T15:32:22.748Z,9.88
2022-12-05T15:35:05.645Z,9.23
2022-12-05T15:37:32.442Z,8.85
2022-12-05T15:40:08.045Z,9.00
2022-12-05T15:42:34.679Z,9.35
2022-12-05T15:45:13.533Z,9.07
2022-12-05T15:47:44.139Z,9.32
2022-12-05T15:50:19.716Z,9.68
2022-12-05T15:52:48.317Z,10.55
2022-12-05T15:55:21.298Z,9.48
2022-12-05T15:57:54.505Z,9.05
2022-12-05T16:00:22.217Z,9.90
2022-12-05T16:03:10.516Z,10.13
2022-12-05T16:05:52.259Z,10.52
2022-12-05T16:08:19.527Z,10.38
2022-12-05T16:10:46.665Z,10.75
2022-12-05T16:13:25.457Z,10.85
2022-12-05T16:15:55.254Z,10.88
2022-12-05T16:18:32.757Z,9.93
2022-12-05T16:20:59.811Z,9.48
2022-12-05T16:23:37.699Z,9.75
2022-12-05T16:26:13.679Z,13.77
2022-12-05T16:28:40.688Z,16.08
2022-12-05T16:31:07.780Z,13.10
2022-12-05T16:33:37.710Z,13.60
2022-12-05T16:36:12.971Z,12.88
2022-12-05T16:38:43.174Z,10.32
2022-12-05T16:43:49.135Z,11.60
2022-12-05T16:46:16.073Z,10.73
2022-12-05T16:48:44.687Z,9.65
2022-12-05T16:51:12.428Z,10.63
2022-12-05T16:53:41.225Z,11.45
2022-12-05T16:56:18.028Z,10.48
2022-12-05T16:58:44.789Z,10.93
2022-12-05T17:01:18.858Z,12.02
2022-12-05T17:03:46.380Z,11.88
2022-12-05T17:06:14.841Z,12.07
2022-12-05T17:08:44.821Z,10.50
2022-12-05T17:11:21.601Z,11.98
2022-12-05T17:13:49.290Z,13.02
2022-12-05T17:16:17.291Z,12.65
2022-12-05T17:18:44.686Z,12.23
2022-12-05T17:21:25.576Z,12.13
2022-12-05T17:23:55.178Z,11.90
2022-12-05T17:26:28.038Z,12.13
2022-12-05T17:28:54.987Z,12.70
2022-12-05T17:31:25.914Z,12.38
2022-12-05T17:33:54.271Z,11.60
2022-12-05T17:36:22.332Z,12.63
2022-12-05T17:38:50.099Z,11.63
2022-12-05T17:41:26.644Z,12.00
2022-12-05T17:43:56.017Z,12.35
2022-12-05T17:46:23.750Z,10.90
2022-12-05T17:48:53.830Z,10.23
2022-12-05T17:51:21.046Z,10.70
2022-12-05T17:53:48.407Z,10.05
2022-12-05T17:56:15.888Z,10.15
2022-12-05T17:58:43.352Z,10.95
2022-12-05T18:01:15.815Z,11.00
2022-12-05T18:03:43.336Z,9.75
2022-12-05T18:06:10.362Z,10.23
2022-12-05T18:08:39.923Z,10.52
2022-12-05T18:11:07.836Z,9.93
2022-12-05T18:13:35.107Z,9.73
2022-12-05T18:16:02.622Z,9.25
2022-12-05T18:18:30.019Z,9.77
2022-12-05T18:21:13.858Z,10.02
2022-12-05T18:23:43.538Z,10.05
2022-12-05T18:26:10.955Z,9.52
2022-12-05T18:28:39.544Z,11.27
2022-12-05T18:31:15.573Z,9.30
2022-12-05T18:33:46.371Z,10.10
2022-12-05T18:36:18.655Z,9.60
2022-12-05T18:38:54.002Z,9.93
2022-12-05T18:41:24.953Z,9.30
2022-12-05T18:43:52.087Z,9.00
2022-12-05T18:46:21.888Z,9.90
2022-12-05T18:48:49.040Z,9.23
2022-12-05T18:51:22.384Z,9.77
2022-12-05T18:53:54.881Z,9.30
2022-12-05T18:56:34.748Z,9.15
2022-12-05T18:59:07.995Z,9.63
2022-12-05T19:01:38.742Z,9.30
2022-12-05T19:04:07.629Z,9.13
2022-12-05T19:06:39.964Z,9.40
2022-12-05T19:09:12.393Z,9.43
2022-12-05T19:11:47.578Z,9.07
2022-12-05T19:14:16.067Z,8.05
2022-12-05T19:16:43.183Z,9.15
2022-12-05T19:19:13.906Z,9.32
2022-12-05T19:21:41.390Z,9.45
2022-12-05T19:24:10.693Z,8.15
2022-12-05T19:26:37.576Z,9.50
2022-12-05T19:29:05.755Z,9.07
2022-12-05T19:31:33.436Z,8.35
2022-12-05T19:34:03.640Z,9.40
2022-12-05T19:39:09.235Z,8.50
2022-12-05T19:41:36.554Z,8.23
2022-12-05T19:44:03.895Z,9.63
2022-12-05T19:46:32.974Z,8.63
2022-12-05T19:49:06.887Z,9.65
2022-12-05T19:51:34.678Z,8.88
2022-12-05T19:54:03.606Z,9.13
2022-12-05T19:56:32.160Z,8.85
2022-12-05T19:59:01.945Z,8.43
2022-12-05T20:01:31.022Z,8.82
2022-12-05T20:04:02.322Z,8.75
2022-12-05T20:06:36.996Z,9.40
2022-12-05T20:09:05.125Z,9.43
2022-12-05T20:11:34.380Z,10.10
2022-12-05T20:14:01.841Z,8.73
2022-12-05T20:16:29.671Z,9.13
2022-12-05T20:18:59.004Z,10.00
2022-12-05T20:21:30.901Z,8.53
2022-12-05T20:24:02.035Z,9.60
2022-12-05T20:26:31.609Z,11.23
2022-12-05T20:28:59.461Z,11.50
2022-12-05T20:31:40.532Z,10.25
2022-12-05T20:34:10.461Z,11.13
2022-12-05T20:36:39.393Z,10.55
2022-12-05T20:39:09.116Z,11.52
2022-12-05T20:41:40.551Z,10.75
2022-12-05T20:44:10.382Z,10.68
2022-12-05T20:46:41.286Z,10.77
2022-12-05T20:49:09.742Z,10.00
2022-12-05T20:51:38.861Z,9.60
2022-12-05T20:54:08.305Z,11.73
2022-12-05T20:56:35.955Z,10.55
2022-12-05T20:59:05.621Z,9.90
2022-12-05T21:01:38.777Z,10.07
2022-12-05T21:04:13.420Z,8.93
2022-12-05T21:06:45.812Z,9.70
2022-12-05T21:09:28.535Z,10.32
2022-12-05T21:11:58.040Z,10.13
2022-12-05T21:14:27.204Z,10.10
2022-12-05T21:16:58.059Z,10.83
2022-12-05T21:19:26.020Z,9.73
2022-12-05T21:21:54.454Z,9.95
2022-12-05T21:24:21.439Z,9.27
2022-12-05T21:26:51.978Z,9.27
2022-12-05T21:29:18.713Z,8.80
2022-12-05T21:31:52.793Z,9.52
2022-12-05T21:34:21.141Z,8.85
2022-12-05T21:36:47.915Z,8.55
2022-12-05T21:39:15.653Z,7.85
2022-12-05T21:41:44.931Z,8.23
2022-12-05T21:44:11.714Z,9.23
2022-12-05T21:46:43.376Z,7.85
2022-12-05T21:49:11.253Z,7.45
2022-12-05T21:51:38.063Z,7.43
2022-12-05T21:54:07.079Z,8.43
2022-12-05T21:56:34.017Z,7.95
2022-12-05T21:59:00.737Z,8.20
2022-12-05T22:01:28.505Z,8.13
2022-12-05T22:04:01.215Z,8.32
2022-12-05T22:06:30.819Z,7.78
2022-12-05T22:08:57.525Z,7.90
2022-12-05T22:11:24.523Z,7.80
2022-12-05T22:13:52.223Z,7.47
2022-12-05T22:16:22.232Z,7.57
2022-12-05T22:18:50.351Z,8.02
2022-12-05T22:21:19.469Z,7.75
2022-12-05T22:23:47.633Z,7.07
2022-12-05T22:26:21.114Z,7.85
2022-12-05T22:28:51.275Z,7.85
2022-12-05T22:33:46.435Z,6.85
2022-12-05T22:36:16.467Z,7.10
2022-12-05T22:38:45.569Z,7.53
2022-12-05T22:41:21.213Z,7.75
2022-12-05T22:43:57.858Z,7.47
2022-12-05T22:46:30.919Z,7.70
2022-12-05T22:49:00.081Z,7.90
2022-12-05T22:51:27.762Z,7.25
2022-12-05T22:53:57.091Z,7.25
2022-12-05T22:56:26.109Z,7.83
2022-12-05T22:58:59.909Z,7.25
2022-12-05T23:01:34.452Z,7.43
2022-12-05T23:04:06.944Z,7.68
2022-12-05T23:06:35.089Z,8.02
2022-12-05T23:09:03.400Z,8.38
2022-12-05T23:11:30.889Z,8.57
2022-12-05T23:14:02.183Z,9.07
2022-12-05T23:16:33.704Z,8.85
2022-12-05T23:19:08.224Z,9.73
2022-12-05T23:21:38.113Z,8.85
2022-12-05T23:24:09.335Z,8.32
2022-12-05T23:26:42.858Z,8.43
2022-12-05T23:29:12.365Z,9.55
2022-12-05T23:31:42.068Z,8.10
2022-12-05T23:34:09.507Z,9.13
2022-12-05T23:36:38.814Z,8.18
2022-12-05T23:39:05.632Z,9.13
2022-12-05T23:41:34.706Z,9.45
2022-12-05T23:44:01.566Z,8.52
2022-12-05T23:46:29.184Z,8.10
2022-12-05T23:48:56.234Z,8.15
2022-12-05T23:51:28.177Z,8.63
2022-12-05T23:53:57.517Z,9.15
2022-12-05T23:56:31.086Z,8.60
2022-12-05T23:58:58.191Z,9.15
